Time;durP1;ratioP1;P1;durP2;ratioP2;P2;SDS_P1;SDS_P2;PMS_P1;PMS_P2;Temp;Humidity;BMP_temperature;BMP_pressure;BME280_temperature;BME280_humidity;BME280_pressure;Samples;Min_cycle;Max_cycle;Signal;HPM_P1;HPM_P2
2022/01/25 00:08:21;;;;;;;;;15.00;15.00;;;;;;;;5076392;27;46253;-71
2022/01/25 00:30:58;;;;;;;;;14.25;13.25;;;;;;;;5071924;28;46084;-71
2022/01/25 00:33:23;;;;;;;;;12.25;12.25;;;;;;;;5074368;27;45297;-71
2022/01/25 00:35:48;;;;;;;;;14.25;14.25;;;;;;;;5057116;28;45519;-71
2022/01/25 00:38:13;;;;;;;;;14.50;13.50;;;;;;;;5073599;27;45434;-71
2022/01/25 00:40:39;;;;;;;;;13.00;13.00;;;;;;;;5072335;28;47369;-71
2022/01/25 00:43:04;;;;;;;;;14.75;14.75;;;;;;;;5073634;28;45272;-71
2022/01/25 00:45:29;;;;;;;;;14.50;13.75;;;;;;;;5076232;28;45486;-71
2022/01/25 00:47:55;;;;;;;;;12.75;12.75;;;;;;;;5074099;27;45538;-71
2022/01/25 00:50:22;;;;;;;;;16.50;14.50;;;;;;;;5075137;28;45874;-71
2022/01/25 00:55:13;;;;;;;;;12.50;12.00;;;;;;;;5073678;27;45186;-71
2022/01/25 00:57:39;;;;;;;;;16.25;14.50;;;;;;;;5072030;28;45400;-71
2022/01/25 01:00:06;;;;;;;;;15.25;14.75;;;;;;;;5083568;27;46113;-69
2022/01/25 01:02:31;;;;;;;;;15.00;12.75;;;;;;;;5076664;27;46800;-71
2022/01/25 01:04:57;;;;;;;;;16.25;14.25;;;;;;;;5079829;27;45572;-71
2022/01/25 01:07:23;;;;;;;;;13.00;13.00;;;;;;;;5075660;27;45458;-71
2022/01/25 01:09:50;;;;;;;;;16.00;13.50;;;;;;;;5074340;28;47295;-71
2022/01/25 01:12:31;;;;;;;;;17.50;16.25;;;;;;;;5074620;27;45399;-71
2022/01/25 01:31:15;;;;;;;;;16.75;13.25;;;;;;;;5078363;27;45418;-71
2022/01/25 01:36:47;;;;;;;;;14.25;14.25;;;;;;;;5074845;27;45858;-71
2022/01/25 01:44:11;;;;;;;;;17.50;14.50;;;;;;;;5072832;28;45465;-71
2022/01/25 01:46:55;;;;;;;;;16.00;14.25;;;;;;;;5071542;28;45421;-71
2022/01/25 01:49:20;;;;;;;;;13.50;13.00;;;;;;;;5066044;28;45631;-71
2022/01/25 01:51:48;;;;;;;;;13.25;13.25;;;;;;;;5073375;28;46627;-71
2022/01/25 01:54:14;;;;;;;;;14.25;12.50;;;;;;;;5074130;27;45491;-71
2022/01/25 01:56:41;;;;;;;;;18.50;13.75;;;;;;;;5072475;28;45524;-71
2022/01/25 01:59:07;;;;;;;;;17.00;17.00;;;;;;;;5074253;28;45370;-71
2022/01/25 02:01:35;;;;;;;;;10.25;10.00;;;;;;;;5074734;28;45575;-71
2022/01/25 02:04:02;;;;;;;;;15.50;14.75;;;;;;;;5076457;28;45565;-71
2022/01/25 02:06:27;;;;;;;;;15.50;15.50;;;;;;;;5077868;28;45493;-71
2022/01/25 02:08:53;;;;;;;;;13.50;13.50;;;;;;;;5076087;28;45463;-71
2022/01/25 02:11:18;;;;;;;;;14.75;13.50;;;;;;;;5074369;27;45307;-71
2022/01/25 02:13:44;;;;;;;;;17.50;16.25;;;;;;;;5077449;27;45347;-71
2022/01/25 02:16:18;;;;;;;;;13.75;13.75;;;;;;;;5077897;28;45659;-71
2022/01/25 02:24:11;;;;;;;;;15.75;14.00;;;;;;;;5074914;28;45327;-71
2022/01/25 02:26:36;;;;;;;;;13.00;12.25;;;;;;;;5074719;28;45288;-71
2022/01/25 02:29:02;;;;;;;;;17.50;14.00;;;;;;;;5076221;28;45342;-71
2022/01/25 02:31:27;;;;;;;;;19.75;17.00;;;;;;;;5085072;27;46413;-71
2022/01/25 02:33:52;;;;;;;;;15.50;14.25;;;;;;;;5076925;27;46910;-71
2022/01/25 02:36:22;;;;;;;;;14.50;14.00;;;;;;;;5075917;27;45398;-71
2022/01/25 02:38:48;;;;;;;;;14.75;14.75;;;;;;;;5075822;28;45480;-71
2022/01/25 02:41:13;;;;;;;;;14.75;14.75;;;;;;;;5075495;28;46327;-71
2022/01/25 02:43:39;;;;;;;;;14.50;13.50;;;;;;;;5075592;27;45371;-71
2022/01/25 02:46:19;;;;;;;;;16.00;16.00;;;;;;;;5078249;27;45470;-71
2022/01/25 02:48:51;;;;;;;;;15.75;15.50;;;;;;;;5073413;28;45503;-71
2022/01/25 02:51:16;;;;;;;;;17.00;16.00;;;;;;;;5076757;27;45534;-71
2022/01/25 02:53:41;;;;;;;;;14.00;12.00;;;;;;;;5073015;28;45399;-71
2022/01/25 02:56:06;;;;;;;;;19.50;16.25;;;;;;;;5075180;28;45335;-71
2022/01/25 02:58:31;;;;;;;;;16.00;14.50;;;;;;;;5075287;27;45383;-71
2022/01/25 03:00:57;;;;;;;;;14.75;14.50;;;;;;;;5075227;27;45452;-71
2022/01/25 03:03:22;;;;;;;;;17.00;17.00;;;;;;;;5089719;27;45519;-71
2022/01/25 03:05:47;;;;;;;;;13.50;13.50;;;;;;;;5076808;27;45319;-71
2022/01/25 03:08:14;;;;;;;;;15.75;15.00;;;;;;;;5080176;27;45472;-71
2022/01/25 03:10:40;;;;;;;;;12.75;12.00;;;;;;;;5074562;28;46350;-71
2022/01/25 03:13:11;;;;;;;;;15.25;14.50;;;;;;;;5074993;28;45508;-71
2022/01/25 03:18:25;;;;;;;;;16.25;13.25;;;;;;;;5075720;27;45490;-71
2022/01/25 03:20:59;;;;;;;;;14.25;14.25;;;;;;;;5074423;27;46236;-71
2022/01/25 03:23:25;;;;;;;;;12.00;12.00;;;;;;;;5073416;27;45484;-71
2022/01/25 03:25:50;;;;;;;;;13.50;13.00;;;;;;;;5074922;28;45252;-71
2022/01/25 03:28:16;;;;;;;;;14.00;14.00;;;;;;;;5073657;28;45400;-71
2022/01/25 03:30:41;;;;;;;;;16.25;15.25;;;;;;;;5076217;27;46292;-71
2022/01/25 03:33:07;;;;;;;;;13.25;12.75;;;;;;;;5076968;27;45837;-71
2022/01/25 03:35:32;;;;;;;;;15.75;15.00;;;;;;;;5073058;28;45944;-71
2022/01/25 03:37:57;;;;;;;;;17.50;15.00;;;;;;;;5076572;27;45440;-71
2022/01/25 03:40:23;;;;;;;;;13.00;13.00;;;;;;;;5076344;27;46088;-71
2022/01/25 03:42:48;;;;;;;;;15.75;15.00;;;;;;;;5076600;28;45387;-71
2022/01/25 03:45:19;;;;;;;;;14.75;13.00;;;;;;;;5058424;28;45312;-71
2022/01/25 03:47:57;;;;;;;;;14.00;13.00;;;;;;;;5073796;27;45356;-71
2022/01/25 03:50:23;;;;;;;;;17.50;15.75;;;;;;;;5076750;27;47246;-71
2022/01/25 03:52:48;;;;;;;;;16.00;14.25;;;;;;;;5083725;27;45507;-71
2022/01/25 03:55:13;;;;;;;;;12.00;12.00;;;;;;;;5075486;27;46068;-71
2022/01/25 03:57:38;;;;;;;;;13.25;11.75;;;;;;;;5076796;27;45362;-71
2022/01/25 04:00:04;;;;;;;;;14.50;12.75;;;;;;;;5072728;27;52156;-71
2022/01/25 04:02:32;;;;;;;;;16.50;13.00;;;;;;;;5073858;28;45503;-71
2022/01/25 04:05:00;;;;;;;;;15.25;12.75;;;;;;;;5072705;28;45404;-71
2022/01/25 04:07:44;;;;;;;;;16.00;13.75;;;;;;;;5075103;27;45403;-71
2022/01/25 04:10:09;;;;;;;;;13.50;13.00;;;;;;;;5058342;28;47323;-71
2022/01/25 04:12:34;;;;;;;;;15.75;14.50;;;;;;;;5076599;28;45415;-71
2022/01/25 04:15:01;;;;;;;;;16.75;13.50;;;;;;;;5074340;28;45472;-71
2022/01/25 04:17:26;;;;;;;;;14.00;14.00;;;;;;;;5076689;27;45478;-71
2022/01/25 04:25:27;;;;;;;;;14.25;13.00;;;;;;;;5010694;28;45519;-71
2022/01/25 04:27:52;;;;;;;;;14.75;12.25;;;;;;;;5011132;28;45449;-71
2022/01/25 04:30:17;;;;;;;;;14.00;14.00;;;;;;;;5012763;28;46102;-70
2022/01/25 04:32:54;;;;;;;;;12.75;11.75;;;;;;;;5012652;28;45639;-71
2022/01/25 04:56:50;;;;;;;;;18.00;13.75;;;;;;;;4953341;28;45351;-71
2022/01/25 05:01:53;;;;;;;;;15.00;13.00;;;;;;;;4992750;28;45475;-71
2022/01/25 05:04:25;;;;;;;;;17.50;13.00;;;;;;;;4993333;28;45424;-71
2022/01/25 05:06:54;;;;;;;;;11.75;11.00;;;;;;;;4992784;28;45430;-71
2022/01/25 05:09:20;;;;;;;;;13.00;13.00;;;;;;;;4991173;28;45353;-71
2022/01/25 05:11:48;;;;;;;;;18.75;18.00;;;;;;;;4987984;28;47092;-71
2022/01/25 05:14:24;;;;;;;;;15.50;14.00;;;;;;;;4987751;28;45549;-71
2022/01/25 05:16:57;;;;;;;;;14.75;14.00;;;;;;;;4987984;28;48474;-71
2022/01/25 05:24:41;;;;;;;;;18.25;15.00;;;;;;;;4989303;28;45487;-71
2022/01/25 05:27:08;;;;;;;;;21.50;14.50;;;;;;;;5019465;28;45359;-71
2022/01/25 05:29:33;;;;;;;;;14.75;14.75;;;;;;;;5066161;27;45264;-71
2022/01/25 05:31:59;;;;;;;;;17.75;15.75;;;;;;;;5082127;27;46179;-71
2022/01/25 05:34:24;;;;;;;;;12.50;12.50;;;;;;;;5074701;27;45354;-71
2022/01/25 05:36:50;;;;;;;;;13.75;12.50;;;;;;;;5077767;27;45391;-71
2022/01/25 05:39:24;;;;;;;;;15.00;14.25;;;;;;;;5076325;27;45267;-71
2022/01/25 05:42:32;;;;;;;;;13.50;13.50;;;;;;;;5076751;28;45383;-71
2022/01/25 05:47:07;;;;;;;;;17.00;12.75;;;;;;;;5077175;27;45407;-70
2022/01/25 05:49:34;;;;;;;;;15.00;13.50;;;;;;;;5076516;28;45295;-71
2022/01/25 05:51:59;;;;;;;;;16.25;14.00;;;;;;;;5076650;28;46403;-71
2022/01/25 05:54:24;;;;;;;;;15.50;12.75;;;;;;;;5077037;27;45269;-71
2022/01/25 05:56:49;;;;;;;;;15.00;15.00;;;;;;;;5077993;27;48716;-71
2022/01/25 05:59:14;;;;;;;;;13.25;13.00;;;;;;;;5082829;27;45322;-71
2022/01/25 06:01:40;;;;;;;;;16.25;15.00;;;;;;;;5075985;28;46374;-71
2022/01/25 06:04:06;;;;;;;;;13.25;13.25;;;;;;;;5077187;27;45488;-71
2022/01/25 06:06:32;;;;;;;;;13.75;13.75;;;;;;;;5078296;28;45295;-71
2022/01/25 06:08:59;;;;;;;;;15.75;13.25;;;;;;;;5076138;28;45528;-71
2022/01/25 06:11:24;;;;;;;;;16.25;13.00;;;;;;;;5074435;27;46299;-71
2022/01/25 06:13:49;;;;;;;;;13.25;11.25;;;;;;;;5075854;27;46117;-71
2022/01/25 06:16:15;;;;;;;;;12.50;12.50;;;;;;;;5074716;28;45392;-71
2022/01/25 06:18:40;;;;;;;;;15.50;14.50;;;;;;;;5078337;28;45489;-71
2022/01/25 06:21:05;;;;;;;;;13.25;12.50;;;;;;;;5076267;27;47557;-71
2022/01/25 06:23:31;;;;;;;;;15.75;15.25;;;;;;;;5077432;27;45827;-71
2022/01/25 06:25:56;;;;;;;;;12.75;12.50;;;;;;;;5075131;27;45538;-70
2022/01/25 06:28:21;;;;;;;;;17.00;15.00;;;;;;;;5061395;28;45491;-70
2022/01/25 06:30:46;;;;;;;;;11.75;11.75;;;;;;;;5077043;27;46299;-71
2022/01/25 06:33:12;;;;;;;;;18.25;16.25;;;;;;;;5076556;27;45519;-70
2022/01/25 06:35:37;;;;;;;;;14.50;14.50;;;;;;;;5075716;28;45473;-70
2022/01/25 06:38:03;;;;;;;;;17.75;15.00;;;;;;;;5074206;27;48854;-69
2022/01/25 06:40:28;;;;;;;;;17.50;13.00;;;;;;;;5075556;27;46926;-70
2022/01/25 06:42:53;;;;;;;;;14.25;13.00;;;;;;;;5076224;27;45473;-71
2022/01/25 06:45:21;;;;;;;;;14.00;13.00;;;;;;;;5078670;27;45346;-69
2022/01/25 06:47:47;;;;;;;;;13.25;11.50;;;;;;;;5075497;27;45693;-71
2022/01/25 06:50:16;;;;;;;;;10.50;10.50;;;;;;;;5075623;27;45937;-70
2022/01/25 06:52:42;;;;;;;;;17.00;13.00;;;;;;;;5076121;27;45388;-70
2022/01/25 06:55:09;;;;;;;;;17.50;14.75;;;;;;;;5062389;28;45427;-70
2022/01/25 06:57:34;;;;;;;;;15.00;12.25;;;;;;;;5089133;27;45878;-68
2022/01/25 06:59:59;;;;;;;;;12.00;11.25;;;;;;;;5069980;27;47267;-70
2022/01/25 07:02:25;;;;;;;;;18.75;14.00;;;;;;;;5070749;27;48432;-70
2022/01/25 07:04:50;;;;;;;;;13.00;12.00;;;;;;;;5072084;28;45469;-70
2022/01/25 07:07:15;;;;;;;;;13.00;11.75;;;;;;;;5072263;27;45412;-71
2022/01/25 07:09:40;;;;;;;;;14.50;13.00;;;;;;;;5076574;28;45422;-70
2022/01/25 07:12:06;;;;;;;;;12.50;11.75;;;;;;;;5074692;27;45549;-70
2022/01/25 07:14:31;;;;;;;;;16.75;14.75;;;;;;;;5075269;28;45472;-70
2022/01/25 07:16:56;;;;;;;;;13.25;10.75;;;;;;;;5074804;28;45616;-69
2022/01/25 07:19:21;;;;;;;;;14.00;13.00;;;;;;;;5082547;27;46617;-69
2022/01/25 07:21:46;;;;;;;;;13.25;12.50;;;;;;;;5076157;28;45209;-72
2022/01/25 07:24:12;;;;;;;;;15.25;10.50;;;;;;;;5076041;27;45394;-71
2022/01/25 07:26:37;;;;;;;;;13.50;13.00;;;;;;;;5074674;28;45343;-72
2022/01/25 07:29:02;;;;;;;;;14.75;14.25;;;;;;;;5074667;27;46227;-72
2022/01/25 07:31:27;;;;;;;;;11.50;11.50;;;;;;;;5076794;27;45458;-71
2022/01/25 07:33:53;;;;;;;;;15.00;13.25;;;;;;;;5077692;27;47114;-72
2022/01/25 07:36:19;;;;;;;;;13.00;13.00;;;;;;;;5076575;27;45266;-72
2022/01/25 07:38:44;;;;;;;;;13.50;13.25;;;;;;;;5072487;28;46193;-72
2022/01/25 07:41:09;;;;;;;;;17.00;15.00;;;;;;;;5082457;27;45311;-72
2022/01/25 07:43:35;;;;;;;;;15.25;13.25;;;;;;;;5074826;27;45910;-72
2022/01/25 07:46:04;;;;;;;;;13.25;13.25;;;;;;;;5076071;28;45549;-72
2022/01/25 07:48:29;;;;;;;;;13.00;12.75;;;;;;;;5076615;28;46409;-72
2022/01/25 07:50:55;;;;;;;;;13.75;13.00;;;;;;;;5073731;27;45609;-71
2022/01/25 07:53:20;;;;;;;;;14.25;14.25;;;;;;;;5074362;28;45657;-71
2022/01/25 07:55:45;;;;;;;;;12.25;11.50;;;;;;;;5071843;27;45610;-72
2022/01/25 07:58:10;;;;;;;;;14.25;13.00;;;;;;;;5073894;28;46864;-72
2022/01/25 08:00:36;;;;;;;;;17.75;14.50;;;;;;;;5076403;28;45481;-72
2022/01/25 08:03:01;;;;;;;;;15.50;14.00;;;;;;;;5072858;28;45474;-72
2022/01/25 08:05:26;;;;;;;;;14.75;13.25;;;;;;;;5072680;28;45451;-71
2022/01/25 08:07:53;;;;;;;;;15.00;13.25;;;;;;;;5074628;28;45589;-72
2022/01/25 08:10:18;;;;;;;;;16.75;14.50;;;;;;;;5055157;28;45949;-72
2022/01/25 08:12:43;;;;;;;;;13.25;13.25;;;;;;;;5075946;28;45418;-72
2022/01/25 08:15:09;;;;;;;;;13.25;12.75;;;;;;;;5073675;28;45385;-72
2022/01/25 08:17:34;;;;;;;;;15.25;13.50;;;;;;;;5075603;27;45493;-72
2022/01/25 08:19:59;;;;;;;;;17.50;14.25;;;;;;;;5072809;27;45358;-72
2022/01/25 08:22:24;;;;;;;;;14.00;12.00;;;;;;;;5072630;28;45396;-72
2022/01/25 08:24:50;;;;;;;;;15.50;12.25;;;;;;;;5075029;27;45212;-72
2022/01/25 08:27:19;;;;;;;;;11.75;11.00;;;;;;;;5075732;28;45390;-71
2022/01/25 08:29:45;;;;;;;;;18.75;16.25;;;;;;;;5076833;27;45584;-72
2022/01/25 08:32:10;;;;;;;;;15.00;14.75;;;;;;;;5080975;27;48768;-72
2022/01/25 08:34:36;;;;;;;;;13.00;13.00;;;;;;;;5074276;27;45511;-72
2022/01/25 08:37:01;;;;;;;;;16.00;15.00;;;;;;;;5074001;27;47016;-72
2022/01/25 08:39:28;;;;;;;;;18.75;16.00;;;;;;;;5074634;28;45288;-72
2022/01/25 08:41:53;;;;;;;;;14.25;13.75;;;;;;;;5073801;27;45453;-72
2022/01/25 08:44:19;;;;;;;;;14.50;13.00;;;;;;;;5080331;27;45403;-72
2022/01/25 08:46:44;;;;;;;;;14.00;13.00;;;;;;;;5073154;27;46291;-72
2022/01/25 08:49:10;;;;;;;;;13.50;13.50;;;;;;;;5072838;28;45541;-72
2022/01/25 08:51:35;;;;;;;;;15.25;15.25;;;;;;;;5075310;28;45454;-72
2022/01/25 08:54:00;;;;;;;;;13.00;13.00;;;;;;;;5074099;27;45447;-72
2022/01/25 08:56:26;;;;;;;;;14.25;12.25;;;;;;;;5073533;28;45388;-72
2022/01/25 08:58:51;;;;;;;;;14.00;14.00;;;;;;;;5073630;28;45506;-72
2022/01/25 09:01:16;;;;;;;;;12.00;12.00;;;;;;;;5083650;27;48781;-72
2022/01/25 09:03:41;;;;;;;;;12.25;12.25;;;;;;;;5075401;28;45510;-73
2022/01/25 09:06:07;;;;;;;;;13.50;13.50;;;;;;;;5073549;28;46312;-72
2022/01/25 09:08:33;;;;;;;;;13.75;12.75;;;;;;;;5073003;27;45654;-72
2022/01/25 09:11:00;;;;;;;;;17.00;13.00;;;;;;;;5072350;28;45369;-71
2022/01/25 09:13:26;;;;;;;;;14.75;13.50;;;;;;;;5083517;27;45303;-72
2022/01/25 09:15:51;;;;;;;;;17.00;14.75;;;;;;;;5073917;28;46062;-72
2022/01/25 09:18:17;;;;;;;;;15.75;15.25;;;;;;;;5074970;27;45510;-72
2022/01/25 09:20:42;;;;;;;;;15.75;13.75;;;;;;;;5073009;28;48047;-72
2022/01/25 09:23:08;;;;;;;;;16.00;14.25;;;;;;;;5073534;28;45469;-72
2022/01/25 09:25:33;;;;;;;;;13.25;11.25;;;;;;;;5071716;28;46022;-72
2022/01/25 09:27:59;;;;;;;;;12.00;10.50;;;;;;;;5073331;28;45498;-72
2022/01/25 09:30:24;;;;;;;;;13.00;13.00;;;;;;;;5082642;27;45253;-72
2022/01/25 09:32:50;;;;;;;;;15.75;15.00;;;;;;;;5074462;27;45450;-72
2022/01/25 09:35:15;;;;;;;;;14.25;13.75;;;;;;;;5072471;27;46086;-72
2022/01/25 09:37:41;;;;;;;;;16.50;14.50;;;;;;;;5073092;28;45591;-72
2022/01/25 09:40:07;;;;;;;;;15.00;12.25;;;;;;;;5073330;28;45481;-72
2022/01/25 09:42:32;;;;;;;;;11.00;9.50;;;;;;;;5075465;28;45585;-72
2022/01/25 09:44:58;;;;;;;;;12.25;10.25;;;;;;;;5074205;28;46917;-72
2022/01/25 09:47:23;;;;;;;;;13.75;13.75;;;;;;;;5075187;27;46278;-72
2022/01/25 09:49:48;;;;;;;;;14.25;13.50;;;;;;;;5076621;27;45327;-72
2022/01/25 09:52:14;;;;;;;;;15.75;14.00;;;;;;;;5072907;28;45352;-72
2022/01/25 09:54:39;;;;;;;;;13.50;12.50;;;;;;;;5077934;27;45964;-72
2022/01/25 09:57:05;;;;;;;;;15.00;13.25;;;;;;;;5075403;27;45492;-72
2022/01/25 09:59:30;;;;;;;;;15.50;15.00;;;;;;;;5078319;27;45458;-72
2022/01/25 10:01:56;;;;;;;;;15.00;14.00;;;;;;;;5073279;28;45276;-72
2022/01/25 10:04:32;;;;;;;;;18.00;14.50;;;;;;;;5071082;28;46303;-72
2022/01/25 10:06:57;;;;;;;;;16.00;15.00;;;;;;;;5072477;28;45253;-72
2022/01/25 10:09:24;;;;;;;;;19.75;15.25;;;;;;;;5072914;28;45262;-72
2022/01/25 10:11:49;;;;;;;;;18.25;16.00;;;;;;;;5070493;28;45482;-72
2022/01/25 10:14:15;;;;;;;;;14.50;14.50;;;;;;;;5070058;28;45450;-72
2022/01/25 10:16:43;;;;;;;;;14.75;14.75;;;;;;;;5072717;28;45447;-73
2022/01/25 10:19:10;;;;;;;;;15.50;14.75;;;;;;;;5072825;28;45390;-72
2022/01/25 10:21:37;;;;;;;;;14.25;13.75;;;;;;;;5078466;27;45408;-72
2022/01/25 10:24:08;;;;;;;;;13.25;12.00;;;;;;;;5074615;28;46138;-72
2022/01/25 10:26:41;;;;;;;;;12.00;11.25;;;;;;;;5074761;28;45312;-72
2022/01/25 10:29:07;;;;;;;;;16.50;15.75;;;;;;;;5077374;27;45497;-72
2022/01/25 10:31:37;;;;;;;;;15.00;15.00;;;;;;;;5084701;27;45602;-72
2022/01/25 10:34:04;;;;;;;;;14.50;13.50;;;;;;;;5075619;27;46053;-72
2022/01/25 10:36:29;;;;;;;;;14.00;14.00;;;;;;;;5078102;27;45363;-72
2022/01/25 10:38:55;;;;;;;;;15.25;15.25;;;;;;;;5056767;27;45395;-72
2022/01/25 10:41:22;;;;;;;;;12.50;12.50;;;;;;;;5074760;27;45411;-72
2022/01/25 10:43:48;;;;;;;;;16.25;16.25;;;;;;;;5085458;27;46130;-71
2022/01/25 10:46:15;;;;;;;;;13.50;12.50;;;;;;;;5073906;28;45561;-72
2022/01/25 10:48:43;;;;;;;;;11.00;9.75;;;;;;;;5077502;28;45415;-72
2022/01/25 10:51:09;;;;;;;;;15.00;12.00;;;;;;;;5074638;28;45443;-72
2022/01/25 10:53:35;;;;;;;;;14.75;14.25;;;;;;;;5076132;27;46227;-72
2022/01/25 10:56:01;;;;;;;;;12.25;12.25;;;;;;;;5074423;28;45408;-72
2022/01/25 10:58:26;;;;;;;;;14.25;14.25;;;;;;;;5082468;27;45480;-72
2022/01/25 11:00:52;;;;;;;;;15.75;13.00;;;;;;;;5076418;28;45437;-72
2022/01/25 11:03:28;;;;;;;;;15.00;13.00;;;;;;;;5086624;27;46338;-72
2022/01/25 11:05:53;;;;;;;;;13.50;13.50;;;;;;;;5077136;27;45525;-73
2022/01/25 11:08:20;;;;;;;;;16.75;14.25;;;;;;;;5068484;28;45568;-73
2022/01/25 11:10:51;;;;;;;;;14.75;14.00;;;;;;;;5074266;27;45410;-74
2022/01/25 11:13:52;;;;;;;;;14.25;14.25;;;;;;;;5086597;27;47281;-73
2022/01/25 11:16:12;;;;;;;;;15.00;13.75;;;;;;;;5056385;28;45502;-73
2022/01/25 11:18:38;;;;;;;;;16.25;13.75;;;;;;;;5077098;27;45457;-72
2022/01/25 11:21:05;;;;;;;;;13.25;11.00;;;;;;;;5058088;28;45315;-71
2022/01/25 11:23:31;;;;;;;;;13.75;13.50;;;;;;;;5076764;27;46293;-73
2022/01/25 11:25:58;;;;;;;;;19.25;12.75;;;;;;;;5075050;28;45357;-73
2022/01/25 11:28:25;;;;;;;;;17.00;14.50;;;;;;;;5073777;28;45464;-73
2022/01/25 11:30:51;;;;;;;;;13.50;13.50;;;;;;;;5084778;27;45339;-71
2022/01/25 11:33:18;;;;;;;;;15.00;13.50;;;;;;;;5075851;28;47118;-71
2022/01/25 11:35:43;;;;;;;;;17.75;17.75;;;;;;;;5073022;27;45419;-71
2022/01/25 11:38:09;;;;;;;;;15.25;14.50;;;;;;;;5074845;27;45366;-71
2022/01/25 11:40:38;;;;;;;;;17.50;15.50;;;;;;;;5074866;27;45477;-71
2022/01/25 11:43:05;;;;;;;;;16.00;16.00;;;;;;;;5077971;27;46041;-71
2022/01/25 11:45:32;;;;;;;;;20.25;15.50;;;;;;;;5079704;27;45408;-74
2022/01/25 11:47:58;;;;;;;;;14.25;14.00;;;;;;;;5067009;27;45529;-71
2022/01/25 11:50:28;;;;;;;;;17.75;14.75;;;;;;;;5069762;27;45416;-71
2022/01/25 11:52:55;;;;;;;;;17.00;15.25;;;;;;;;5074728;27;45357;-71
2022/01/25 11:55:23;;;;;;;;;16.25;13.25;;;;;;;;5074395;28;45461;-71
2022/01/25 11:57:52;;;;;;;;;15.00;12.50;;;;;;;;5075701;28;45401;-71
2022/01/25 12:00:19;;;;;;;;;16.75;15.00;;;;;;;;5081490;27;45284;-73
2022/01/25 12:02:46;;;;;;;;;20.25;16.75;;;;;;;;5077215;27;45422;-71
2022/01/25 12:05:13;;;;;;;;;18.00;13.75;;;;;;;;5072577;27;45521;-71
2022/01/25 12:07:41;;;;;;;;;22.25;17.00;;;;;;;;5074433;28;45670;-71
2022/01/25 12:10:29;;;;;;;;;18.25;15.50;;;;;;;;5074069;28;45605;-73
2022/01/25 12:13:12;;;;;;;;;16.00;14.00;;;;;;;;5072317;28;45530;-71
2022/01/25 12:15:38;;;;;;;;;19.00;16.25;;;;;;;;5075169;27;45332;-71
2022/01/25 12:18:03;;;;;;;;;17.25;17.00;;;;;;;;5073495;27;45371;-71
2022/01/25 12:20:28;;;;;;;;;14.75;14.75;;;;;;;;5074666;28;48542;-71
2022/01/25 12:23:10;;;;;;;;;13.00;13.00;;;;;;;;5075777;27;47108;-71
2022/01/25 12:26:18;;;;;;;;;16.00;15.50;;;;;;;;5074008;28;45370;-71
2022/01/25 12:28:38;;;;;;;;;21.50;17.00;;;;;;;;5060495;28;45403;-71
2022/01/25 12:31:13;;;;;;;;;17.50;16.25;;;;;;;;5078114;27;45489;-72
2022/01/25 12:33:40;;;;;;;;;17.50;15.25;;;;;;;;5075977;28;45668;-73
2022/01/25 12:36:07;;;;;;;;;17.50;13.00;;;;;;;;5073655;28;45413;-73
2022/01/25 12:38:39;;;;;;;;;20.25;16.75;;;;;;;;5068059;28;45426;-73
2022/01/25 12:41:15;;;;;;;;;16.50;16.50;;;;;;;;5072642;28;45395;-73
2022/01/25 12:44:00;;;;;;;;;16.00;15.25;;;;;;;;5077584;27;47014;-73
2022/01/25 12:46:40;;;;;;;;;18.00;16.00;;;;;;;;5059373;28;45293;-73
2022/01/25 12:49:11;;;;;;;;;16.50;16.25;;;;;;;;5073725;27;45251;-73
2022/01/25 12:51:38;;;;;;;;;20.75;19.25;;;;;;;;5077608;27;45357;-73
2022/01/25 12:54:05;;;;;;;;;15.50;13.25;;;;;;;;5074005;27;46108;-73
2022/01/25 12:56:34;;;;;;;;;16.50;15.50;;;;;;;;5072413;28;45397;-73
2022/01/25 12:59:01;;;;;;;;;17.75;15.50;;;;;;;;5071546;27;45346;-71
2022/01/25 13:01:27;;;;;;;;;18.75;16.50;;;;;;;;5068628;28;45508;-73
2022/01/25 13:03:53;;;;;;;;;17.50;16.25;;;;;;;;5074039;28;47060;-73
2022/01/25 13:06:23;;;;;;;;;21.25;16.25;;;;;;;;5074686;28;45145;-73
2022/01/25 13:09:06;;;;;;;;;18.25;17.50;;;;;;;;5073387;27;45489;-73
2022/01/25 13:14:32;;;;;;;;;14.75;14.00;;;;;;;;5076620;27;46038;-73
2022/01/25 13:17:01;;;;;;;;;20.00;18.75;;;;;;;;5082892;27;45586;-73
2022/01/25 13:19:37;;;;;;;;;18.50;16.75;;;;;;;;5070918;28;45461;-73
2022/01/25 13:22:11;;;;;;;;;22.25;16.25;;;;;;;;5073016;28;45553;-73
2022/01/25 13:24:44;;;;;;;;;22.25;15.50;;;;;;;;5081702;27;45430;-70
2022/01/25 13:27:12;;;;;;;;;17.50;17.50;;;;;;;;5072379;28;45473;-71
2022/01/25 13:32:26;;;;;;;;;19.00;17.00;;;;;;;;5071505;28;45687;-73
2022/01/25 13:35:02;;;;;;;;;20.50;18.00;;;;;;;;5071592;27;45585;-73
2022/01/25 13:37:27;;;;;;;;;16.75;16.75;;;;;;;;5072678;27;45461;-72
2022/01/25 13:39:58;;;;;;;;;19.50;16.75;;;;;;;;5073677;28;46548;-73
2022/01/25 13:42:27;;;;;;;;;19.50;18.00;;;;;;;;5072978;28;45464;-73
2022/01/25 13:45:44;;;;;;;;;19.00;16.25;;;;;;;;5073588;27;45581;-73
2022/01/25 13:48:11;;;;;;;;;17.00;17.00;;;;;;;;4994387;28;45417;-73
2022/01/25 13:50:38;;;;;;;;;19.25;15.00;;;;;;;;4991129;28;45508;-73
2022/01/25 13:53:04;;;;;;;;;22.25;16.00;;;;;;;;4989560;28;45591;-73
2022/01/25 13:55:29;;;;;;;;;19.75;17.50;;;;;;;;4980258;28;46175;-73
2022/01/25 13:57:54;;;;;;;;;16.75;16.00;;;;;;;;4993217;28;45860;-73
2022/01/25 14:00:20;;;;;;;;;19.75;18.00;;;;;;;;4991560;28;45537;-73
2022/01/25 14:02:53;;;;;;;;;20.00;18.75;;;;;;;;4994591;28;45669;-73
2022/01/25 14:05:19;;;;;;;;;23.50;19.00;;;;;;;;4993594;28;45520;-73
2022/01/25 14:07:47;;;;;;;;;18.00;17.75;;;;;;;;4997512;28;45475;-73
2022/01/25 14:10:18;;;;;;;;;24.75;22.00;;;;;;;;4989120;28;48122;-73
2022/01/25 14:23:48;;;;;;;;;15.50;15.50;;;;;;;;5055439;28;45364;-73
2022/01/25 14:26:14;;;;;;;;;26.50;18.25;;;;;;;;5052765;28;46127;-73
2022/01/25 14:28:46;;;;;;;;;19.25;18.25;;;;;;;;5057476;28;45474;-73
2022/01/25 14:31:21;;;;;;;;;21.50;19.00;;;;;;;;5050332;28;45346;-73
2022/01/25 14:34:00;;;;;;;;;20.50;18.50;;;;;;;;5053669;28;45531;-73
2022/01/25 14:36:27;;;;;;;;;23.00;16.25;;;;;;;;5057520;28;46628;-73
2022/01/25 14:38:54;;;;;;;;;17.00;17.00;;;;;;;;5055282;28;45476;-73
2022/01/25 14:41:19;;;;;;;;;21.00;17.75;;;;;;;;5056779;28;45366;-73
2022/01/25 14:43:56;;;;;;;;;24.25;20.75;;;;;;;;5062203;28;45478;-73
2022/01/25 14:46:24;;;;;;;;;24.25;19.00;;;;;;;;5038391;28;45488;-73
2022/01/25 14:49:07;;;;;;;;;19.25;18.75;;;;;;;;5078142;27;45464;-71
2022/01/25 14:51:46;;;;;;;;;23.50;18.75;;;;;;;;5085730;27;45475;-73
2022/01/25 14:54:20;;;;;;;;;20.00;16.25;;;;;;;;5074471;28;45487;-71
2022/01/25 14:56:48;;;;;;;;;17.00;14.50;;;;;;;;5078734;27;46178;-71
2022/01/25 14:59:25;;;;;;;;;22.00;20.00;;;;;;;;5075343;28;45594;-70
2022/01/25 15:01:52;;;;;;;;;24.00;22.00;;;;;;;;5075608;28;45331;-71
2022/01/25 15:04:17;;;;;;;;;20.00;18.75;;;;;;;;5075983;27;45399;-71
2022/01/25 15:06:43;;;;;;;;;19.25;18.25;;;;;;;;5082247;27;45975;-72
2022/01/25 15:09:08;;;;;;;;;19.25;17.75;;;;;;;;5075240;27;45416;-72
2022/01/25 15:11:33;;;;;;;;;24.00;20.50;;;;;;;;5073799;28;45387;-72
2022/01/25 15:14:07;;;;;;;;;23.50;19.75;;;;;;;;5075149;27;45258;-73
2022/01/25 15:16:32;;;;;;;;;24.00;21.25;;;;;;;;5075008;28;45574;-72
2022/01/25 15:18:57;;;;;;;;;18.25;17.00;;;;;;;;5075811;27;45434;-73
2022/01/25 15:21:23;;;;;;;;;21.75;19.50;;;;;;;;5074963;27;45494;-72
2022/01/25 15:23:50;;;;;;;;;22.75;20.25;;;;;;;;5069603;27;45472;-73
2022/01/25 15:26:17;;;;;;;;;24.50;20.50;;;;;;;;5083734;27;46420;-72
2022/01/25 15:28:45;;;;;;;;;19.25;18.75;;;;;;;;5076491;28;45438;-73
2022/01/25 15:31:12;;;;;;;;;20.00;18.00;;;;;;;;5069968;27;45498;-72
2022/01/25 15:33:37;;;;;;;;;17.25;16.75;;;;;;;;5077178;28;45291;-73
2022/01/25 15:36:04;;;;;;;;;18.75;17.50;;;;;;;;5073307;28;46237;-73
2022/01/25 15:38:29;;;;;;;;;20.25;17.75;;;;;;;;5074478;28;45436;-73
2022/01/25 15:40:54;;;;;;;;;17.75;17.00;;;;;;;;5077346;27;45308;-73
2022/01/25 15:43:23;;;;;;;;;21.75;19.00;;;;;;;;5075173;28;45517;-73
2022/01/25 15:48:24;;;;;;;;;19.50;17.50;;;;;;;;5077635;27;45209;-72
2022/01/25 15:50:49;;;;;;;;;25.50;20.25;;;;;;;;5072882;28;45530;-73
2022/01/25 15:53:14;;;;;;;;;20.75;16.25;;;;;;;;5074605;28;45374;-72
2022/01/25 15:55:40;;;;;;;;;23.75;19.25;;;;;;;;5074138;27;45385;-72
2022/01/25 15:58:05;;;;;;;;;22.00;17.50;;;;;;;;5074025;28;45289;-73
2022/01/25 16:00:31;;;;;;;;;20.50;18.50;;;;;;;;5075597;28;45208;-72
2022/01/25 16:02:56;;;;;;;;;21.00;20.50;;;;;;;;5072194;27;45418;-73
2022/01/25 16:05:21;;;;;;;;;19.00;17.50;;;;;;;;5072832;28;45376;-72
2022/01/25 16:07:48;;;;;;;;;20.00;20.00;;;;;;;;5072693;28;45299;-73
2022/01/25 16:10:14;;;;;;;;;21.50;20.25;;;;;;;;5073917;28;46181;-72
2022/01/25 16:12:39;;;;;;;;;22.25;20.50;;;;;;;;5072385;28;45350;-72
2022/01/25 16:15:04;;;;;;;;;24.50;19.25;;;;;;;;5074504;27;45423;-73
2022/01/25 16:17:29;;;;;;;;;15.75;15.75;;;;;;;;5075180;27;45406;-72